Time;durP1;ratioP1;P1;durP2;ratioP2;P2;SDS_P1;SDS_P2;PMS_P1;PMS_P2;Temp;Humidity;BMP_temperature;BMP_pressure;BME280_temperature;BME280_humidity;BME280_pressure;Samples;Min_cycle;Max_cycle;Signal;HPM_P1;HPM_P2
2021/01/20 00:00:12;;;;;;;13.82;5.20;;;5.50;99.90;;;6.29;100.00;100013.22;5040043;28;20540;-74
2021/01/20 00:02:38;;;;;;;14.38;5.18;;;5.50;99.90;;;6.28;100.00;100016.72;5036616;28;20554;-73
2021/01/20 00:05:08;;;;;;;12.75;5.00;;;5.50;99.90;;;6.27;100.00;100004.63;5040235;28;20189;-72
2021/01/20 00:07:34;;;;;;;11.73;4.20;;;5.40;99.90;;;6.26;100.00;100010.72;5037455;28;20197;-72
2021/01/20 00:10:00;;;;;;;13.45;5.25;;;5.40;99.90;;;6.25;100.00;100007.28;5044478;28;20192;-73
2021/01/20 00:12:27;;;;;;;13.68;5.03;;;5.40;99.90;;;6.23;100.00;100005.63;5039407;28;20203;-70
2021/01/20 00:14:53;;;;;;;11.70;4.50;;;5.40;99.90;;;6.21;100.00;100007.44;5045660;28;20221;-73
2021/01/20 00:17:19;;;;;;;14.10;5.35;;;5.40;99.90;;;6.20;100.00;100008.31;5040065;28;20570;-73
2021/01/20 00:19:46;;;;;;;14.32;5.05;;;5.40;99.90;;;6.15;100.00;100013.66;5039853;28;20193;-72
2021/01/20 00:22:13;;;;;;;14.90;5.22;;;5.40;99.90;;;6.14;100.00;100014.56;5040447;28;20244;-73
2021/01/20 00:24:40;;;;;;;13.40;4.65;;;5.30;99.90;;;6.13;100.00;100023.25;5037997;28;20217;-73
2021/01/20 00:27:08;;;;;;;16.40;5.47;;;5.30;99.90;;;6.13;100.00;100024.97;5042142;28;20684;-73
2021/01/20 00:29:35;;;;;;;13.32;5.45;;;5.30;99.90;;;6.14;100.00;100024.97;5041189;28;20215;-73
2021/01/20 00:32:04;;;;;;;15.70;5.78;;;5.30;99.90;;;6.13;100.00;100032.75;5057649;28;20193;-72
2021/01/20 00:34:30;;;;;;;15.07;5.45;;;5.30;99.90;;;6.14;100.00;100034.47;5042417;28;20593;-73
2021/01/20 00:36:56;;;;;;;14.68;5.43;;;5.30;99.90;;;6.15;100.00;100036.16;5040704;28;20189;-73
2021/01/20 00:39:23;;;;;;;14.13;5.35;;;5.30;99.90;;;6.15;100.00;100030.97;5038046;28;20201;-71
2021/01/20 00:41:50;;;;;;;14.40;5.30;;;5.30;99.90;;;6.12;100.00;100031.06;5041298;28;20189;-73
2021/01/20 00:44:16;;;;;;;15.90;6.20;;;5.30;99.90;;;6.11;100.00;100026.78;5038469;28;20221;-73
2021/01/20 00:46:42;;;;;;;14.00;5.13;;;5.30;99.90;;;6.10;100.00;100033.72;5039139;28;20599;-73
2021/01/20 00:49:08;;;;;;;14.75;5.07;;;5.30;99.90;;;6.07;100.00;100027.78;5043663;28;20201;-73
2021/01/20 00:51:35;;;;;;;14.20;5.40;;;5.30;99.90;;;6.08;100.00;100039.84;5040086;28;20238;-73
2021/01/20 00:54:01;;;;;;;14.48;5.95;;;5.30;99.90;;;6.10;100.00;100038.06;5046351;28;20205;-73
2021/01/20 00:56:30;;;;;;;16.10;5.72;;;5.30;99.90;;;6.10;100.00;100032.88;5040656;28;20202;-73
2021/01/20 00:58:57;;;;;;;16.45;6.07;;;5.30;99.90;;;6.09;100.00;100038.97;5039746;28;20193;-72
2021/01/20 01:01:23;;;;;;;14.45;6.20;;;5.30;99.90;;;6.09;100.00;100041.56;5038778;28;20201;-71
2021/01/20 01:03:49;;;;;;;14.60;5.25;;;5.30;99.90;;;6.09;100.00;100036.38;5046517;28;20233;-71
2021/01/20 01:06:16;;;;;;;15.25;5.72;;;5.30;99.90;;;6.09;100.00;100038.97;5042234;28;20193;-71
2021/01/20 01:08:42;;;;;;;16.65;5.75;;;5.30;99.90;;;6.09;100.00;100042.44;5039866;28;20188;-73
2021/01/20 01:11:09;;;;;;;13.73;5.03;;;5.30;99.90;;;6.11;100.00;100044.97;5038527;28;20277;-73
2021/01/20 01:13:44;;;;;;;14.38;5.95;;;5.30;99.90;;;6.09;100.00;100042.44;5039105;28;20634;-71
2021/01/20 01:16:39;;;;;;;15.68;5.57;;;5.30;99.90;;;6.10;100.00;100040.66;5035232;28;20689;-73
2021/01/20 01:19:07;;;;;;;14.95;5.70;;;5.30;99.90;;;6.14;100.00;100039.69;5040043;28;20279;-72
2021/01/20 01:21:34;;;;;;;14.98;5.95;;;5.40;99.90;;;6.16;100.00;100033.53;5043237;28;20695;-72
2021/01/20 01:24:01;;;;;;;14.00;5.13;;;5.40;99.90;;;6.17;100.00;100032.66;5042818;28;20216;-73
2021/01/20 01:26:27;;;;;;;15.85;6.18;;;5.40;99.90;;;6.17;100.00;100034.38;5042455;28;20256;-73
2021/01/20 01:28:54;;;;;;;14.30;5.65;;;5.40;99.90;;;6.14;100.00;100024.09;5054389;28;20291;-73
2021/01/20 01:31:33;;;;;;;15.98;5.63;;;5.40;99.90;;;6.14;100.00;100034.47;5043371;28;20196;-72
2021/01/20 01:34:01;;;;;;;14.13;5.20;;;5.50;99.90;;;6.14;100.00;100035.34;5052524;28;20685;-73
2021/01/20 01:36:28;;;;;;;15.10;6.10;;;5.50;99.90;;;6.13;100.00;100038.81;5040094;28;20216;-73
2021/01/20 01:38:57;;;;;;;14.48;5.68;;;5.40;99.90;;;6.13;100.00;100040.56;5037602;28;20197;-74
2021/01/20 01:41:33;;;;;;;15.93;5.93;;;5.40;99.90;;;6.14;100.00;100044.88;5041859;28;20574;-71
2021/01/20 01:44:04;;;;;;;13.77;5.40;;;5.40;99.90;;;6.12;100.00;100041.47;5048746;28;20221;-72
2021/01/20 01:46:33;;;;;;;13.05;5.70;;;5.40;99.90;;;6.10;100.00;100043.25;5041561;28;20189;-72
2021/01/20 01:49:12;;;;;;;14.00;5.82;;;5.40;99.90;;;6.07;100.00;100035.56;5043996;28;20287;-73
2021/01/20 01:51:39;;;;;;;13.18;5.50;;;5.40;99.90;;;6.04;100.00;100035.66;5039786;28;20205;-73
2021/01/20 01:54:45;;;;;;;15.45;5.70;;;5.40;99.90;;;6.01;100.00;100035.75;5041735;28;20245;-72
2021/01/20 01:57:38;;;;;;;14.15;5.45;;;5.30;99.90;;;6.02;100.00;100040.03;5038775;28;20670;-72
2021/01/20 02:00:09;;;;;;;16.90;6.20;;;5.40;99.90;;;6.01;100.00;100040.97;5059056;28;20267;-72
2021/01/20 02:02:54;;;;;;;14.15;6.03;;;5.40;99.90;;;6.05;100.00;100039.94;5038918;28;20224;-73
2021/01/20 02:05:24;;;;;;;14.32;6.07;;;5.40;99.90;;;6.06;100.00;100050.28;5041178;28;20285;-73
2021/01/20 02:07:51;;;;;;;16.13;6.28;;;5.40;99.90;;;6.06;100.00;100041.66;5050422;28;20593;-73
2021/01/20 02:10:24;;;;;;;16.60;6.60;;;5.40;99.90;;;6.03;100.00;100036.53;5037723;28;20193;-72
2021/01/20 02:13:13;;;;;;;14.80;6.75;;;5.40;99.90;;;6.02;100.00;100040.03;5040438;28;20207;-72
2021/01/20 02:16:12;;;;;;;16.35;6.15;;;5.40;99.90;;;6.00;100.00;100044.44;5037797;28;20213;-72
2021/01/20 02:18:42;;;;;;;15.50;6.30;;;5.40;99.90;;;6.00;100.00;100041.84;5037724;28;20557;-72
2021/01/20 02:22:15;;;;;;;15.68;7.00;;;5.40;99.90;;;5.99;100.00;100040.16;5036894;28;20192;-72
2021/01/20 02:25:05;;;;;;;15.95;6.78;;;5.40;99.90;;;5.98;100.00;100039.28;5022072;28;20248;-72
2021/01/20 02:27:58;;;;;;;14.93;6.68;;;5.40;99.90;;;5.98;100.00;100043.63;5047663;28;20200;-72
2021/01/20 02:30:28;;;;;;;17.42;8.10;;;5.40;99.90;;;5.96;100.00;100045.44;5041853;28;20280;-72
2021/01/20 02:33:03;;;;;;;15.68;6.93;;;5.40;99.90;;;5.96;100.00;100045.44;5051151;28;20275;-72
2021/01/20 02:35:56;;;;;;;17.27;7.00;;;5.40;99.90;;;5.95;100.00;100038.53;5037563;28;20669;-72
2021/01/20 02:38:25;;;;;;;15.65;6.90;;;5.30;99.90;;;5.98;100.00;100048.81;5044768;28;20202;-72
2021/01/20 02:41:00;;;;;;;17.90;6.90;;;5.30;99.90;;;5.99;100.00;100050.53;5043056;28;20592;-72
2021/01/20 02:43:41;;;;;;;16.95;7.68;;;5.40;99.90;;;5.99;100.00;100056.59;5048653;28;20718;-72
2021/01/20 02:46:27;;;;;;;17.23;7.35;;;5.40;99.90;;;5.97;100.00;100052.31;5042437;28;20208;-72
2021/01/20 02:48:56;;;;;;;15.18;7.57;;;5.30;99.90;;;5.96;100.00;100056.66;5048529;28;20204;-72
2021/01/20 02:51:32;;;;;;;17.63;6.82;;;5.40;99.90;;;5.96;100.00;100051.44;5044521;28;20712;-72
2021/01/20 02:54:20;;;;;;;16.52;7.70;;;5.40;99.90;;;5.94;100.00;100053.28;5043978;28;20230;-71
2021/01/20 02:57:10;;;;;;;19.42;7.65;;;5.30;99.90;;;5.93;100.00;100051.56;5042544;28;20189;-69
2021/01/20 02:59:51;;;;;;;16.98;7.50;;;5.30;99.90;;;5.95;100.00;100048.91;5045057;28;20197;-73
2021/01/20 03:02:39;;;;;;;17.27;7.55;;;5.30;99.90;;;5.96;99.87;100061.00;5046465;28;20201;-72
2021/01/20 03:05:09;;;;;;;18.65;7.70;;;5.40;99.90;;;5.94;99.81;100061.06;5043704;28;20201;-72
2021/01/20 03:07:39;;;;;;;17.42;7.22;;;5.30;99.90;;;5.91;99.67;100063.72;5045453;28;20189;-72
2021/01/20 03:10:08;;;;;;;16.58;7.68;;;5.40;99.90;;;5.92;99.70;100059.38;5046417;28;20208;-72
2021/01/20 03:12:36;;;;;;;18.20;8.32;;;5.40;99.90;;;5.90;99.84;100062.03;5041883;28;20201;-72
2021/01/20 03:15:09;;;;;;;16.63;7.35;;;5.40;99.90;;;5.94;99.84;100058.47;5038028;28;20225;-70
2021/01/20 03:17:36;;;;;;;16.98;8.25;;;5.40;99.90;;;5.98;99.69;100061.78;5044642;28;20638;-71
2021/01/20 03:20:03;;;;;;;17.63;7.60;;;5.40;99.90;;;5.97;99.50;100065.28;5043671;28;20208;-72
2021/01/20 03:22:30;;;;;;;15.70;7.30;;;5.40;99.90;;;5.93;99.26;100055.88;5046295;28;20200;-72
2021/01/20 03:24:56;;;;;;;16.05;7.10;;;5.40;99.90;;;5.88;99.09;100058.63;5045101;28;20666;-72
2021/01/20 03:27:22;;;;;;;16.23;7.45;;;5.30;99.90;;;5.84;99.20;100051.84;5047066;28;20204;-73
2021/01/20 03:29:48;;;;;;;17.60;7.85;;;5.30;99.90;;;5.83;99.25;100050.13;5045512;28;20235;-72
2021/01/20 03:32:14;;;;;;;15.75;7.10;;;5.30;99.90;;;5.83;99.24;100044.06;5049264;28;20201;-72
2021/01/20 03:34:41;;;;;;;16.05;7.13;;;5.30;99.90;;;5.83;99.21;100047.53;5048342;28;20266;-72
2021/01/20 03:37:07;;;;;;;18.52;7.25;;;5.30;99.90;;;5.82;99.03;100047.53;5044591;28;20296;-72
2021/01/20 03:39:34;;;;;;;14.23;6.57;;;5.30;99.90;;;5.82;98.88;100047.53;5049681;28;20197;-72
2021/01/20 03:42:00;;;;;;;16.45;7.03;;;5.30;99.90;;;5.80;98.88;100039.81;5046326;28;20226;-72
2021/01/20 03:44:26;;;;;;;17.55;7.15;;;5.20;99.90;;;5.79;98.93;100034.66;5041446;28;20227;-72
2021/01/20 03:46:53;;;;;;;15.10;6.72;;;5.20;99.90;;;5.77;99.15;100034.72;5047113;28;20200;-72
2021/01/20 03:49:19;;;;;;;14.82;6.93;;;5.20;99.90;;;5.74;98.66;100033.94;5040257;28;20193;-71
2021/01/20 03:51:46;;;;;;;16.17;6.63;;;5.20;99.90;;;5.75;98.61;100033.03;5043511;28;20236;-72
2021/01/20 03:54:12;;;;;;;15.40;7.10;;;5.20;99.90;;;5.73;98.42;100030.50;5044113;28;20217;-72
2021/01/20 03:56:39;;;;;;;14.65;6.80;;;5.10;99.90;;;5.69;98.16;100035.81;5046964;28;20197;-72
2021/01/20 03:59:05;;;;;;;15.95;6.88;;;5.10;99.90;;;5.65;98.21;100029.88;5044514;28;20736;-71
2021/01/20 04:01:32;;;;;;;13.57;6.30;;;5.00;99.90;;;5.61;97.98;100030.84;5044780;28;20193;-71
2021/01/20 04:03:58;;;;;;;14.27;6.45;;;5.00;99.90;;;5.55;97.82;100017.19;5045813;28;20274;-72
2021/01/20 04:06:31;;;;;;;14.05;6.18;;;5.00;99.90;;;5.53;97.92;100013.78;5044098;28;20662;-72
2021/01/20 04:08:58;;;;;;;15.50;6.47;;;4.90;99.90;;;5.51;97.88;100011.25;5046743;28;20240;-72
2021/01/20 04:11:24;;;;;;;15.77;6.05;;;4.90;99.90;;;5.49;97.83;100013.06;5045460;28;20236;-72
2021/01/20 04:13:51;;;;;;;13.57;6.32;;;4.90;99.90;;;5.48;97.52;100010.47;5039080;28;20217;-72
2021/01/20 04:16:17;;;;;;;14.15;6.78;;;4.80;99.90;;;5.48;97.45;100006.16;5042493;28;20193;-71
2021/01/20 04:18:44;;;;;;;14.02;6.03;;;4.80;99.90;;;5.49;97.29;100007.00;5046123;28;20197;-72
2021/01/20 04:21:11;;;;;;;14.80;6.28;;;4.80;99.90;;;5.50;97.33;100011.28;5043872;28;20255;-72
2021/01/20 04:23:38;;;;;;;13.35;6.13;;;4.80;99.90;;;5.49;97.12;100004.41;5047378;28;20262;-72
2021/01/20 04:26:06;;;;;;;12.40;6.00;;;4.80;99.90;;;5.46;96.87;99996.72;5046933;28;20196;-70
2021/01/20 04:28:33;;;;;;;14.90;5.93;;;4.80;99.90;;;5.47;96.77;100006.19;5039774;28;20273;-72
2021/01/20 04:31:01;;;;;;;15.38;5.93;;;4.80;99.90;;;5.48;96.79;100000.09;5047650;28;20211;-72
2021/01/20 04:33:28;;;;;;;13.40;5.63;;;4.80;99.90;;;5.45;96.66;100006.25;5044640;28;20227;-72
2021/01/20 04:35:55;;;;;;;13.15;5.40;;;4.80;99.90;;;5.43;96.70;99991.59;5044023;28;20242;-72
2021/01/20 04:38:21;;;;;;;12.75;5.18;;;4.80;99.90;;;5.42;96.36;99998.56;5042693;28;20284;-72
2021/01/20 04:40:51;;;;;;;11.88;4.72;;;4.80;99.90;;;5.44;96.31;99989.00;5043968;28;20238;-72
2021/01/20 04:43:18;;;;;;;11.55;4.80;;;4.80;99.90;;;5.43;95.93;99986.41;5047528;28;20217;-72
2021/01/20 04:45:45;;;;;;;11.13;4.63;;;4.80;99.90;;;5.41;95.69;99981.28;5048710;28;20295;-71
2021/01/20 04:48:13;;;;;;;11.13;4.55;;;4.80;99.90;;;5.42;95.57;99979.53;5039304;28;20200;-71
2021/01/20 04:50:42;;;;;;;11.48;4.47;;;4.80;99.90;;;5.41;95.13;99977.84;5044038;28;20247;-72
2021/01/20 04:53:10;;;;;;;9.15;3.63;;;4.80;99.90;;;5.39;94.83;99982.22;5043260;28;20227;-72
2021/01/20 04:55:41;;;;;;;11.95;4.40;;;4.80;99.90;;;5.39;94.61;99985.69;5048503;28;20212;-72
2021/01/20 04:58:10;;;;;;;11.88;4.03;;;4.80;99.90;;;5.40;94.47;99981.31;5049972;28;20197;-71
2021/01/20 05:00:37;;;;;;;11.82;4.07;;;4.80;99.90;;;5.42;94.34;99976.94;5049624;28;20717;-71
2021/01/20 05:03:06;;;;;;;12.48;3.90;;;4.80;99.90;;;5.43;93.92;99979.50;5036340;28;20217;-72
2021/01/20 05:05:32;;;;;;;10.55;3.75;;;4.80;99.90;;;5.42;93.75;99975.22;5041640;28;20262;-72
2021/01/20 05:08:00;;;;;;;13.30;3.63;;;4.80;99.90;;;5.39;93.70;99977.03;5052375;28;20196;-72
2021/01/20 05:10:27;;;;;;;11.68;3.85;;;4.80;99.90;;;5.37;93.76;99973.63;5049621;28;20200;-72
2021/01/20 05:12:53;;;;;;;9.55;3.67;;;4.80;99.90;;;5.36;93.50;99979.72;5049197;28;20676;-72
2021/01/20 05:15:30;;;;;;;11.27;3.97;;;4.80;99.90;;;5.38;93.54;99976.19;5047418;28;20224;-72
2021/01/20 05:18:00;;;;;;;12.80;3.78;;;4.80;99.90;;;5.40;93.32;99970.94;5045777;28;20288;-72
2021/01/20 05:20:29;;;;;;;11.60;3.65;;;4.80;99.90;;;5.40;93.06;99966.63;5049643;28;20614;-72
2021/01/20 05:22:57;;;;;;;8.95;3.17;;;4.80;99.90;;;5.38;92.48;99972.72;5029719;28;20308;-72
2021/01/20 05:25:29;;;;;;;11.30;3.20;;;4.80;99.90;;;5.36;92.20;99966.75;5036589;28;20658;-71
2021/01/20 05:27:56;;;;;;;8.95;3.33;;;4.80;99.90;;;5.34;91.81;99955.56;5046979;28;20723;-71
2021/01/20 05:30:23;;;;;;;9.18;3.25;;;4.80;99.90;;;5.32;91.54;99957.34;5048864;28;20196;-71
2021/01/20 05:33:00;;;;;;;10.35;3.35;;;4.80;99.90;;;5.34;91.75;99965.94;5050749;28;20213;-72
2021/01/20 05:35:26;;;;;;;8.52;3.00;;;4.70;99.90;;;5.36;91.70;99964.16;5045615;28;20227;-71
2021/01/20 05:37:52;;;;;;;10.75;3.42;;;4.80;99.90;;;5.36;91.80;99961.56;5047854;28;20240;-72
2021/01/20 05:40:20;;;;;;;11.02;3.90;;;4.80;99.90;;;5.36;91.46;99944.25;5047383;28;20197;-73
2021/01/20 05:42:51;;;;;;;12.18;3.15;;;4.80;99.90;;;5.37;91.39;99950.28;5049628;28;20224;-73
2021/01/20 05:45:19;;;;;;;10.35;3.00;;;4.80;99.90;;;5.34;91.35;99950.38;5040002;28;20197;-70
2021/01/20 05:48:07;;;;;;;8.73;3.60;;;4.80;99.90;;;5.37;91.20;99952.88;5043325;28;20205;-72
2021/01/20 05:50:35;;;;;;;12.90;3.50;;;4.80;99.90;;;5.36;90.97;99964.16;5037566;28;20204;-73
2021/01/20 05:53:09;;;;;;;11.43;3.45;;;4.70;99.90;;;5.33;91.05;99975.47;5039010;28;20217;-75
2021/01/20 05:55:37;;;;;;;10.43;3.50;;;4.80;99.90;;;5.31;90.89;99971.22;5044584;28;20216;-71
2021/01/20 05:58:04;;;;;;;11.55;3.75;;;4.70;99.90;;;5.25;90.46;99973.97;5043367;28;20197;-71
2021/01/20 06:00:31;;;;;;;11.93;4.30;;;4.60;99.90;;;5.21;90.59;99970.63;5044019;28;20604;-72
2021/01/20 06:02:58;;;;;;;13.52;3.67;;;4.60;99.90;;;5.21;90.72;99977.56;5045002;28;20209;-72
2021/01/20 06:05:27;;;;;;;11.43;3.80;;;4.50;99.90;;;5.21;90.58;99974.97;5040324;28;20207;-72
2021/01/20 06:07:54;;;;;;;12.40;4.28;;;4.50;99.90;;;5.21;90.60;99974.97;5052615;28;20189;-69
2021/01/20 06:10:22;;;;;;;10.27;3.92;;;4.50;99.90;;;5.21;90.53;99974.97;5042017;28;20549;-72
2021/01/20 06:12:49;;;;;;;12.23;4.32;;;4.50;99.90;;;5.16;90.53;99977.66;5046984;28;20776;-72
2021/01/20 06:15:16;;;;;;;13.13;5.38;;;4.50;99.90;;;5.16;90.33;99979.44;5048807;28;20266;-70
2021/01/20 06:17:44;;;;;;;12.60;4.20;;;4.50;99.90;;;5.16;90.81;99977.66;5044210;28;20197;-72
2021/01/20 06:20:12;;;;;;;13.20;4.20;;;4.50;99.90;;;5.16;90.55;99977.66;5047766;28;20193;-72
2021/01/20 06:22:50;;;;;;;14.75;4.57;;;4.50;99.90;;;5.16;90.52;99976.84;5045796;28;20197;-72
2021/01/20 06:25:28;;;;;;;14.45;4.60;;;4.50;99.90;;;5.17;90.42;99970.75;5044264;28;20193;-71
2021/01/20 06:28:01;;;;;;;12.93;4.20;;;4.50;99.90;;;5.20;90.47;99971.53;5044756;28;20228;-71
2021/01/20 06:30:34;;;;;;;14.10;4.55;;;4.60;99.90;;;5.23;90.20;99968.84;5048301;28;20203;-72
2021/01/20 06:33:06;;;;;;;10.07;4.03;;;4.60;99.90;;;5.28;90.16;99968.69;5043613;28;20296;-73
2021/01/20 06:35:42;;;;;;;14.18;5.13;;;4.60;99.90;;;5.28;89.98;99972.16;5047349;28;20240;-72
2021/01/20 06:38:34;;;;;;;12.88;4.30;;;4.70;99.90;;;5.27;89.67;99965.28;5038703;28;20196;-71
2021/01/20 06:41:02;;;;;;;9.68;4.07;;;4.60;99.90;;;5.26;89.51;99967.91;5042147;28;20205;-72
2021/01/20 06:43:43;;;;;;;13.43;3.85;;;4.60;99.90;;;5.25;89.49;99966.19;5044055;28;20589;-72
2021/01/20 06:46:21;;;;;;;11.52;3.58;;;4.60;99.90;;;5.23;89.61;99973.16;5047992;28;20192;-71
2021/01/20 06:49:11;;;;;;;9.40;3.65;;;4.60;99.90;;;5.21;89.27;99974.97;5046133;28;20262;-72
2021/01/20 06:51:39;;;;;;;9.73;3.50;;;4.60;99.90;;;5.20;88.91;99973.25;5040063;28;21910;-71
2021/01/20 06:54:10;;;;;;;11.23;4.00;;;4.50;99.90;;;5.21;89.06;99974.97;5043251;28;20213;-72
2021/01/20 06:56:40;;;;;;;11.13;4.13;;;4.50;99.90;;;5.22;88.98;99976.66;5059862;28;20193;-71
2021/01/20 06:59:25;;;;;;;9.25;3.80;;;4.50;99.90;;;5.26;89.10;99973.09;5043641;28;20203;-72
2021/01/20 07:02:11;;;;;;;11.30;4.18;;;4.50;99.90;;;5.27;88.76;99978.25;5041800;28;20194;-69
2021/01/20 07:05:09;;;;;;;10.38;3.80;;;4.50;99.90;;;5.31;89.03;99961.69;5041887;28;20213;-72
2021/01/20 07:08:07;;;;;;;10.40;3.85;;;4.60;99.90;;;5.30;88.72;99977.28;5038111;28;20664;-72
2021/01/20 07:11:07;;;;;;;10.90;3.63;;;4.60;99.90;;;5.30;88.65;99964.31;5039293;28;20601;-73
2021/01/20 07:13:39;;;;;;;9.73;3.35;;;4.70;99.90;;;5.31;88.65;99964.28;5044653;28;20200;-72
2021/01/20 07:16:09;;;;;;;9.23;3.35;;;4.70;99.90;;;5.34;88.21;99965.94;5043250;28;20220;-73
2021/01/20 07:18:40;;;;;;;10.02;3.30;;;4.70;99.90;;;5.35;88.29;99978.00;5038412;28;20282;-72
2021/01/20 07:21:07;;;;;;;9.38;3.25;;;4.70;99.90;;;5.36;88.03;99969.34;5035374;28;20193;-73
2021/01/20 07:23:35;;;;;;;13.60;3.90;;;4.70;99.90;;;5.39;88.04;99964.06;5052311;28;20221;-73
2021/01/20 07:26:03;;;;;;;7.95;2.67;;;4.80;99.90;;;5.41;87.95;99964.88;5039353;28;20197;-73
2021/01/20 07:28:33;;;;;;;9.15;3.10;;;4.80;99.90;;;5.42;87.80;99963.97;5039257;28;20877;-73
2021/01/20 07:31:11;;;;;;;9.88;3.10;;;4.80;99.90;;;5.45;87.58;99963.88;5041243;28;20197;-73
2021/01/20 07:33:39;;;;;;;9.40;3.10;;;4.80;99.90;;;5.50;87.31;99972.38;5041378;28;20676;-72
2021/01/20 07:36:11;;;;;;;8.77;3.03;;;4.80;99.90;;;5.48;87.05;99977.63;5041272;28;20578;-72
2021/01/20 07:38:37;;;;;;;10.85;3.25;;;4.80;99.90;;;5.49;86.60;99975.88;5041281;28;20205;-73
2021/01/20 07:41:16;;;;;;;9.60;3.00;;;4.80;99.90;;;5.52;86.84;99970.59;5037134;28;20204;-72
2021/01/20 07:43:44;;;;;;;9.60;3.05;;;4.90;99.90;;;5.54;86.85;99974.00;5038899;28;20626;-71
2021/01/20 07:46:16;;;;;;;8.68;3.10;;;4.90;99.90;;;5.53;86.32;99972.28;5041438;28;20196;-71
2021/01/20 07:48:43;;;;;;;8.68;2.78;;;4.90;99.90;;;5.55;86.41;99973.94;5032924;28;20188;-73
2021/01/20 07:51:16;;;;;;;15.38;3.50;;;4.90;99.90;;;5.58;86.40;99970.41;5039317;28;20268;-73
2021/01/20 07:53:56;;;;;;;12.88;3.40;;;4.90;99.90;;;5.60;86.16;99979.00;5035819;28;20212;-73
2021/01/20 07:56:22;;;;;;;9.68;3.20;;;5.00;99.90;;;5.60;86.00;99973.81;5037645;28;20743;-73
2021/01/20 07:58:50;;;;;;;13.63;3.40;;;5.00;99.90;;;5.62;85.88;99972.03;5038861;28;20702;-74
2021/01/20 08:01:28;;;;;;;12.10;2.95;;;5.00;99.90;;;5.62;85.88;99978.06;5042250;28;20205;-71
2021/01/20 08:03:57;;;;;;;9.55;3.03;;;5.00;99.90;;;5.65;85.69;99977.97;5034730;28;20308;-73
2021/01/20 08:06:24;;;;;;;8.77;2.88;;;5.00;99.90;;;5.66;85.56;99976.25;5035495;28;20221;-74
2021/01/20 08:08:53;;;;;;;13.25;3.40;;;5.00;99.90;;;5.68;85.52;99966.63;5046741;28;20271;-73
2021/01/20 08:11:20;;;;;;;12.00;2.70;;;5.10;99.90;;;5.69;85.38;99974.41;5041697;28;20694;-73
2021/01/20 08:13:48;;;;;;;9.20;2.97;;;5.10;99.90;;;5.75;85.44;99983.72;5046051;28;20209;-73
2021/01/20 08:16:16;;;;;;;11.32;2.75;;;5.20;99.90;;;5.80;85.07;99976.66;5043285;28;20213;-73
2021/01/20 08:18:46;;;;;;;18.42;3.20;;;5.30;99.90;;;5.83;85.25;99971.41;5046467;28;20193;-74
2021/01/20 08:21:13;;;;;;;9.48;3.08;;;5.30;99.90;;;5.90;84.96;99967.72;5039780;28;20200;-73
2021/01/20 08:23:51;;;;;;;8.65;2.72;;;5.40;99.90;;;5.94;84.66;99958.94;5038828;28;20205;-71
2021/01/20 08:26:25;;;;;;;8.55;3.13;;;5.40;99.90;;;5.95;84.38;99973.63;5036073;28;20669;-74
2021/01/20 08:29:07;;;;;;;10.52;2.85;;;5.40;99.90;;;5.98;84.50;99965.72;5038665;28;20188;-74
2021/01/20 08:31:36;;;;;;;8.43;2.38;;;5.50;99.90;;;6.03;83.95;99969.03;5039365;28;20691;-73
2021/01/20 08:34:17;;;;;;;7.93;2.60;;;5.50;99.90;;;6.04;84.04;99961.22;5040878;28;20216;-72
2021/01/20 08:36:55;;;;;;;9.40;2.45;;;5.60;99.90;;;6.03;83.86;99956.03;5038770;28;20205;-73
2021/01/20 08:39:22;;;;;;;11.05;3.03;;;5.60;99.90;;;6.04;83.51;99960.38;5037414;28;20197;-70
2021/01/20 08:42:37;;;;;;;7.53;2.50;;;5.60;99.90;;;6.07;83.33;99965.44;5038826;28;20202;-74
2021/01/20 08:45:15;;;;;;;10.93;2.30;;;5.60;99.90;;;6.09;83.22;99963.66;5042769;28;20196;-73
2021/01/20 08:48:04;;;;;;;8.40;2.50;;;5.60;99.90;;;6.14;83.18;99956.56;5032189;28;20285;-75
2021/01/20 08:50:41;;;;;;;8.23;2.40;;;5.60;99.90;;;6.19;82.96;99971.13;5039771;28;20196;-74
2021/01/20 08:53:10;;;;;;;7.85;2.53;;;5.70;99.90;;;6.24;82.48;99960.56;5038692;28;20223;-74
2021/01/20 08:55:39;;;;;;;7.20;2.20;;;5.70;99.90;;;6.28;82.26;99964.75;5038194;28;20213;-71
2021/01/20 08:58:26;;;;;;;7.35;2.47;;;5.70;99.90;;;6.31;82.12;99969.88;5034675;28;20285;-70
2021/01/20 09:01:02;;;;;;;7.35;2.22;;;5.80;99.90;;;6.35;81.86;99961.06;5027142;28;20594;-74
2021/01/20 09:03:31;;;;;;;10.05;2.80;;;5.80;99.90;;;6.36;81.25;99958.41;5043349;28;20220;-73
2021/01/20 09:06:01;;;;;;;6.50;2.30;;;5.80;99.90;;;6.40;81.29;99950.53;5049576;28;20204;-73
2021/01/20 09:08:29;;;;;;;7.72;2.70;;;5.90;99.90;;;6.45;81.31;99956.44;5037459;28;20339;-74
2021/01/20 09:10:58;;;;;;;8.38;2.20;;;5.90;99.90;;;6.48;81.25;99945.94;5040791;28;20196;-74
2021/01/20 09:13:25;;;;;;;9.45;2.60;;;6.00;99.90;;;6.53;80.98;99942.25;5039266;28;20228;-74
2021/01/20 09:15:54;;;;;;;9.00;2.33;;;6.10;99.90;;;6.58;80.66;99945.56;5028099;28;20795;-74
2021/01/20 09:18:21;;;;;;;10.10;2.50;;;6.10;99.90;;;6.64;80.38;99942.75;5033293;28;20208;-72
2021/01/20 09:20:49;;;;;;;9.10;2.67;;;6.10;99.90;;;6.68;80.18;99939.13;5031241;28;20189;-71
2021/01/20 09:23:16;;;;;;;8.60;2.60;;;6.10;99.90;;;6.72;79.94;99948.53;5037718;28;20221;-73
2021/01/20 09:25:42;;;;;;;11.05;2.75;;;6.20;99.90;;;6.75;79.36;99934.59;5031862;28;20577;-71
2021/01/20 09:28:09;;;;;;;9.45;2.67;;;6.20;99.90;;;6.79;79.29;99939.63;5036203;28;20209;-72
2021/01/20 09:30:36;;;;;;;8.57;2.35;;;6.20;99.90;;;6.81;79.15;99947.38;5039294;28;20211;-73
2021/01/20 09:33:02;;;;;;;6.60;2.42;;;6.20;99.90;;;6.80;78.91;99928.31;5039396;28;21896;-73
2021/01/20 09:35:29;;;;;;;9.60;2.65;;;6.20;99.90;;;6.81;78.66;99944.78;5035387;28;20212;-71
2021/01/20 09:37:56;;;;;;;11.02;2.97;;;6.20;99.90;;;6.81;78.59;99927.44;5041735;28;20203;-74
2021/01/20 09:40:25;;;;;;;11.98;2.42;;;6.30;99.90;;;6.83;79.04;99942.97;5041597;28;20215;-73
2021/01/20 09:42:53;;;;;;;7.53;2.50;;;6.30;99.90;;;6.85;78.70;99946.38;5041112;28;20693;-73
2021/01/20 09:45:22;;;;;;;7.75;2.67;;;6.30;99.90;;;6.86;78.88;99932.47;5042973;28;20196;-71
2021/01/20 09:47:49;;;;;;;8.27;2.50;;;6.30;99.90;;;6.85;78.37;99926.41;5043162;28;20204;-74
2021/01/20 09:50:17;;;;;;;14.07;2.85;;;6.30;99.90;;;6.88;78.20;99931.50;5037596;28;20258;-71
2021/01/20 09:52:46;;;;;;;9.25;2.60;;;6.40;99.90;;;6.94;78.26;99933.88;5035212;28;20190;-73
2021/01/20 09:55:15;;;;;;;10.27;2.80;;;6.40;99.90;;;6.99;78.06;99921.56;5033349;28;20324;-72
2021/01/20 09:57:42;;;;;;;9.50;2.75;;;6.50;99.90;;;7.06;77.93;99925.66;5038435;28;20563;-73
2021/01/20 10:00:11;;;;;;;8.18;2.60;;;6.60;99.90;;;7.15;77.91;99909.69;5040714;28;20634;-74
2021/01/20 10:02:40;;;;;;;8.57;2.40;;;6.60;99.90;;;7.23;77.15;99910.25;5031250;28;20654;-72
2021/01/20 10:05:10;;;;;;;9.30;2.97;;;6.80;99.90;;;7.35;76.99;99917.59;5039715;28;20231;-73
2021/01/20 10:07:37;;;;;;;9.43;2.90;;;6.90;99.90;;;7.42;76.71;99908.66;5035960;28;20205;-73
2021/01/20 10:10:04;;;;;;;8.93;2.42;;;7.00;99.90;;;7.46;76.43;99909.41;5039001;28;20201;-73
2021/01/20 10:12:31;;;;;;;6.65;2.35;;;7.00;99.90;;;7.47;76.37;99911.94;5039235;28;20197;-74
2021/01/20 10:14:58;;;;;;;9.63;2.42;;;7.00;99.90;;;7.50;76.42;99905.78;5038230;28;20255;-73
2021/01/20 10:17:24;;;;;;;9.95;2.65;;;7.00;99.90;;;7.52;76.13;99897.00;5036991;28;20758;-72
2021/01/20 10:19:50;;;;;;;9.13;3.20;;;7.00;99.90;;;7.56;76.19;99889.91;5042098;28;20201;-73
2021/01/20 10:22:16;;;;;;;8.50;2.53;;;7.10;99.90;;;7.58;75.87;99886.34;5040983;28;20196;-72
2021/01/20 10:24:42;;;;;;;7.28;2.58;;;7.10;99.90;;;7.63;75.86;99881.78;5034775;28;20221;-73
2021/01/20 10:27:09;;;;;;;9.70;2.70;;;7.20;99.90;;;7.67;75.56;99882.53;5033753;28;20661;-73
2021/01/20 10:29:36;;;;;;;11.07;2.20;;;7.20;99.90;;;7.71;75.31;99872.84;5058097;28;20609;-73
2021/01/20 10:32:03;;;;;;;9.88;2.55;;;7.30;99.90;;;7.75;75.16;99866.63;5035959;28;20189;-72
2021/01/20 10:34:30;;;;;;;9.15;2.17;;;7.30;99.90;;;7.79;74.74;99868.19;5050153;28;20222;-72
2021/01/20 10:36:56;;;;;;;7.57;2.08;;;7.40;99.90;;;7.81;74.49;99866.34;5039300;28;20208;-71
2021/01/20 10:39:23;;;;;;;5.88;2.10;;;7.40;99.90;;;7.84;74.47;99861.06;5031451;28;20225;-71